createdAt,value
2022-10-31T00:00:26.934Z,10.60
2022-10-31T00:15:23.849Z,9.70
2022-10-31T00:30:24.058Z,10.32
2022-10-31T00:45:23.983Z,10.25
2022-10-31T01:00:25.022Z,10.47
2022-10-31T01:15:24.607Z,10.00
2022-10-31T01:30:24.212Z,9.90
2022-10-31T01:45:24.288Z,9.68
2022-10-31T02:00:28.597Z,9.80
2022-10-31T02:15:24.151Z,9.55
2022-10-31T02:30:24.087Z,9.25
2022-10-31T02:45:24.316Z,9.20
2022-10-31T03:00:24.455Z,9.05
2022-10-31T03:15:24.197Z,8.93
2022-10-31T03:30:23.991Z,8.90
2022-10-31T03:45:24.058Z,9.00
2022-10-31T04:00:27.947Z,8.73
2022-10-31T04:15:24.015Z,8.73
2022-10-31T04:30:24.128Z,8.90
2022-10-31T04:45:24.196Z,8.40
2022-10-31T05:00:25.650Z,8.40
2022-10-31T05:15:24.490Z,8.32
2022-10-31T05:30:24.100Z,8.20
2022-10-31T05:45:33.393Z,8.15
2022-10-31T06:00:34.896Z,8.00
2022-10-31T06:15:24.070Z,8.50
2022-10-31T06:30:26.672Z,7.93
2022-10-31T06:45:23.379Z,7.90
2022-10-31T07:00:30.856Z,7.77
2022-10-31T07:15:23.491Z,7.88
2022-10-31T07:30:24.409Z,7.95
2022-10-31T07:45:23.781Z,8.23
2022-10-31T08:00:27.859Z,8.73
2022-10-31T08:15:23.522Z,8.98
2022-10-31T08:30:23.849Z,9.45
2022-10-31T08:45:23.694Z,9.90
2022-10-31T09:00:24.092Z,10.27
2022-10-31T09:15:23.901Z,10.63
2022-10-31T09:30:23.866Z,11.10
2022-10-31T09:45:23.919Z,11.37
2022-10-31T10:00:25.196Z,11.87
2022-10-31T10:15:23.683Z,12.15
2022-10-31T10:30:23.557Z,12.53
2022-10-31T10:45:23.945Z,12.85
2022-10-31T11:00:30.556Z,13.33
2022-10-31T11:15:23.774Z,13.73
2022-10-31T11:30:24.007Z,14.12
2022-10-31T11:45:23.834Z,14.77
2022-10-31T12:00:42.833Z,15.08
2022-10-31T12:15:23.831Z,15.25
2022-10-31T12:30:26.943Z,15.25
2022-10-31T12:45:23.878Z,15.40
2022-10-31T13:00:30.498Z,15.30
2022-10-31T13:15:24.150Z,15.55
2022-10-31T13:30:23.945Z,15.77
2022-10-31T13:45:23.955Z,16.00
2022-10-31T14:00:39.365Z,16.10
2022-10-31T14:15:23.798Z,16.30
2022-10-31T14:30:23.961Z,16.52
2022-10-31T14:45:24.454Z,16.47
2022-10-31T15:00:23.926Z,16.15
2022-10-31T15:15:24.396Z,15.87
2022-10-31T15:30:25.980Z,15.10
2022-10-31T15:45:23.908Z,14.87
2022-10-31T16:00:37.928Z,14.30
2022-10-31T16:15:24.095Z,14.12
2022-10-31T16:30:23.994Z,14.03
2022-10-31T16:45:24.548Z,13.70
2022-10-31T17:00:25.579Z,13.35
2022-10-31T17:15:24.042Z,12.93
2022-10-31T17:30:29.322Z,12.70
2022-10-31T17:45:24.172Z,12.67
2022-10-31T18:00:24.738Z,12.30
2022-10-31T18:15:24.280Z,12.05
2022-10-31T18:30:24.714Z,12.05
2022-10-31T18:45:33.974Z,11.95
2022-10-31T19:00:42.864Z,11.82
2022-10-31T19:15:23.205Z,11.77
2022-10-31T19:30:24.746Z,11.67
2022-10-31T19:45:23.378Z,11.87
2022-10-31T20:00:23.483Z,12.07
2022-10-31T20:15:23.329Z,11.80
2022-10-31T20:30:23.411Z,11.83
2022-10-31T20:45:23.390Z,11.80
2022-10-31T21:00:23.974Z,11.70
2022-10-31T21:15:23.397Z,11.55
2022-10-31T21:30:29.240Z,11.48
2022-10-31T21:45:23.647Z,11.53
2022-10-31T22:00:23.505Z,11.35
2022-10-31T22:15:23.322Z,11.27
2022-10-31T22:30:23.887Z,11.40
2022-10-31T22:45:23.775Z,11.00
2022-10-31T23:00:34.941Z,12.00
2022-10-31T23:15:23.520Z,10.70
2022-10-31T23:30:23.761Z,10.55
2022-10-31T23:45:23.574Z,10.60
